sensor_id;sensor_type;location;lat;lon;timestamp;pressure;altitude;pressure_sealevel;temperature;humidity
70343;BME280;57767;42.068;24.752;2023-05-08T00:00:11;99143.84;;;11.73;66.77
70343;BME280;57767;42.068;24.752;2023-05-08T00:01:13;99152.81;;;11.72;66.58
70343;BME280;57767;42.068;24.752;2023-05-08T00:02:16;99148.13;;;11.74;65.93
70343;BME280;57767;42.068;24.752;2023-05-08T00:03:18;99144.28;;;11.77;66.27
70343;BME280;57767;42.068;24.752;2023-05-08T00:04:19;99145.09;;;11.77;65.32
70343;BME280;57767;42.068;24.752;2023-05-08T00:05:22;99138.34;;;11.81;64.91
70343;BME280;57767;42.068;24.752;2023-05-08T00:06:23;99146.94;;;11.77;65.56
70343;BME280;57767;42.068;24.752;2023-05-08T00:07:25;99140.41;;;11.73;65.41
70343;BME280;57767;42.068;24.752;2023-05-08T00:08:27;99140.19;;;11.74;65.93
70343;BME280;57767;42.068;24.752;2023-05-08T00:09:28;99139.78;;;11.71;66.20
70343;BME280;57767;42.068;24.752;2023-05-08T00:10:30;99131.28;;;11.62;66.23
70343;BME280;57767;42.068;24.752;2023-05-08T00:11:32;99137.16;;;11.71;65.86
70343;BME280;57767;42.068;24.752;2023-05-08T00:12:34;99140.41;;;11.73;66.09
70343;BME280;57767;42.068;24.752;2023-05-08T00:13:36;99134.50;;;11.71;66.26
70343;BME280;57767;42.068;24.752;2023-05-08T00:14:37;99134.28;;;11.72;66.69
70343;BME280;57767;42.068;24.752;2023-05-08T00:15:39;99140.03;;;11.76;66.36
70343;BME280;57767;42.068;24.752;2023-05-08T00:16:41;99124.53;;;11.79;66.29
70343;BME280;57767;42.068;24.752;2023-05-08T00:17:43;99133.06;;;11.81;66.80
70343;BME280;57767;42.068;24.752;2023-05-08T00:18:45;99134.50;;;11.84;66.48
70343;BME280;57767;42.068;24.752;2023-05-08T00:19:47;99119.84;;;11.75;66.65
70343;BME280;57767;42.068;24.752;2023-05-08T00:20:49;99131.81;;;11.91;66.10
70343;BME280;57767;42.068;24.752;2023-05-08T00:21:51;99137.50;;;11.94;66.00
70343;BME280;57767;42.068;24.752;2023-05-08T00:22:52;99133.63;;;11.97;65.67
70343;BME280;57767;42.068;24.752;2023-05-08T00:23:54;99127.38;;;11.84;66.12
70343;BME280;57767;42.068;24.752;2023-05-08T00:24:56;99142.59;;;11.96;66.36
70343;BME280;57767;42.068;24.752;2023-05-08T00:25:58;99127.75;;;11.88;66.76
70343;BME280;57767;42.068;24.752;2023-05-08T00:26:59;99145.84;;;11.98;66.40
70343;BME280;57767;42.068;24.752;2023-05-08T00:28:01;99135.25;;;11.98;66.27
70343;BME280;57767;42.068;24.752;2023-05-08T00:29:03;99136.88;;;11.92;66.45
70343;BME280;57767;42.068;24.752;2023-05-08T00:30:07;99136.88;;;11.92;66.93
70343;BME280;57767;42.068;24.752;2023-05-08T00:31:09;99143.25;;;11.84;67.34
70343;BME280;57767;42.068;24.752;2023-05-08T00:32:11;99136.34;;;11.77;67.64
70343;BME280;57767;42.068;24.752;2023-05-08T00:33:13;99139.97;;;11.82;67.50
70343;BME280;57767;42.068;24.752;2023-05-08T00:34:14;99137.75;;;11.79;67.09
70343;BME280;57767;42.068;24.752;2023-05-08T00:35:16;99138.78;;;11.78;67.10
70343;BME280;57767;42.068;24.752;2023-05-08T00:36:18;99139.81;;;11.77;66.61
70343;BME280;57767;42.068;24.752;2023-05-08T00:37:20;99128.41;;;11.77;66.38
70343;BME280;57767;42.068;24.752;2023-05-08T00:38:22;99136.56;;;11.75;66.20
70343;BME280;57767;42.068;24.752;2023-05-08T00:39:24;99141.66;;;11.77;66.29
70343;BME280;57767;42.068;24.752;2023-05-08T00:40:26;99135.53;;;11.76;65.51
70343;BME280;57767;42.068;24.752;2023-05-08T00:41:28;99135.72;;;11.68;66.07
70343;BME280;57767;42.068;24.752;2023-05-08T00:42:29;99150.59;;;11.76;65.10
70343;BME280;57767;42.068;24.752;2023-05-08T00:43:31;99141.66;;;11.77;65.64
70343;BME280;57767;42.068;24.752;2023-05-08T00:44:34;99140.59;;;11.71;65.19
70343;BME280;57767;42.068;24.752;2023-05-08T00:45:36;99135.16;;;11.60;65.23
70343;BME280;57767;42.068;24.752;2023-05-08T00:46:39;99143.69;;;11.62;65.47
70343;BME280;57767;42.068;24.752;2023-05-08T00:47:42;99141.84;;;11.62;65.27
70343;BME280;57767;42.068;24.752;2023-05-08T00:48:44;99150.16;;;11.66;65.51
70343;BME280;57767;42.068;24.752;2023-05-08T00:49:46;99135.34;;;11.65;65.55
70343;BME280;57767;42.068;24.752;2023-05-08T00:50:51;99148.56;;;11.58;65.72
70343;BME280;57767;42.068;24.752;2023-05-08T00:51:54;99145.09;;;11.58;65.47
70343;BME280;57767;42.068;24.752;2023-05-08T00:52:57;99145.09;;;11.58;66.13
70343;BME280;57767;42.068;24.752;2023-05-08T00:53:59;99148.97;;;11.55;65.33
70343;BME280;57767;42.068;24.752;2023-05-08T00:55:02;99136.97;;;11.53;65.72
70343;BME280;57767;42.068;24.752;2023-05-08T00:56:11;99146.34;;;11.55;65.68
70343;BME280;57767;42.068;24.752;2023-05-08T00:57:14;99142.06;;;11.54;65.22
70343;BME280;57767;42.068;24.752;2023-05-08T00:58:18;99145.72;;;11.53;65.54
70343;BME280;57767;42.068;24.752;2023-05-08T00:59:21;99150.59;;;11.56;64.99
70343;BME280;57767;42.068;24.752;2023-05-08T01:00:23;99146.94;;;11.57;65.64
70343;BME280;57767;42.068;24.752;2023-05-08T01:01:25;99147.16;;;11.56;64.85
70343;BME280;57767;42.068;24.752;2023-05-08T01:02:28;99150.59;;;11.56;65.09
70343;BME280;57767;42.068;24.752;2023-05-08T01:03:34;99155.06;;;11.56;65.12
70343;BME280;57767;42.068;24.752;2023-05-08T01:04:37;99156.50;;;11.58;65.09
70343;BME280;57767;42.068;24.752;2023-05-08T01:05:40;99161.38;;;11.55;65.74
70343;BME280;57767;42.068;24.752;2023-05-08T01:06:42;99157.53;;;11.51;65.09
70343;BME280;57767;42.068;24.752;2023-05-08T01:07:44;99160.41;;;11.49;65.49
70343;BME280;57767;42.068;24.752;2023-05-08T01:08:46;99162.03;;;11.50;65.47
70343;BME280;57767;42.068;24.752;2023-05-08T01:09:48;99163.66;;;11.44;65.85
70343;BME280;57767;42.068;24.752;2023-05-08T01:15:14;99157.56;;;11.31;65.77
70343;BME280;57767;42.068;24.752;2023-05-08T01:16:31;99178.72;;;11.37;65.78
70343;BME280;57767;42.068;24.752;2023-05-08T01:18:25;99171.38;;;11.33;66.63
70343;BME280;57767;42.068;24.752;2023-05-08T01:21:55;99177.91;;;11.24;67.87
70343;BME280;57767;42.068;24.752;2023-05-08T01:23:34;99181.56;;;11.23;67.73
70343;BME280;57767;42.068;24.752;2023-05-08T01:32:54;99178.69;;;11.31;65.87
70343;BME280;57767;42.068;24.752;2023-05-08T01:34:05;99180.34;;;11.25;66.18
70343;BME280;57767;42.068;24.752;2023-05-08T01:35:42;99179.31;;;11.06;66.53
70343;BME280;57767;42.068;24.752;2023-05-08T01:37:51;99172.22;;;11.00;66.98
70343;BME280;57767;42.068;24.752;2023-05-08T01:40:10;99166.31;;;11.05;67.51
70343;BME280;57767;42.068;24.752;2023-05-08T01:41:26;99172.41;;;11.05;67.37
70343;BME280;57767;42.068;24.752;2023-05-08T01:44:11;99171.41;;;11.13;67.01
70343;BME280;57767;42.068;24.752;2023-05-08T01:45:37;99175.88;;;11.12;67.28
70343;BME280;57767;42.068;24.752;2023-05-08T01:46:41;99180.16;;;11.13;67.27
70343;BME280;57767;42.068;24.752;2023-05-08T01:47:50;99167.34;;;11.10;67.65
70343;BME280;57767;42.068;24.752;2023-05-08T01:49:05;99176.28;;;11.23;67.13
70343;BME280;57767;42.068;24.752;2023-05-08T01:50:19;99167.13;;;11.25;67.27
70343;BME280;57767;42.068;24.752;2023-05-08T01:51:22;99156.97;;;11.22;67.58
70343;BME280;57767;42.068;24.752;2023-05-08T01:52:33;99168.16;;;11.24;67.07
70343;BME280;57767;42.068;24.752;2023-05-08T01:53:41;99168.53;;;11.14;67.90
70343;BME280;57767;42.068;24.752;2023-05-08T01:55:20;99165.72;;;11.09;67.80
70343;BME280;57767;42.068;24.752;2023-05-08T01:56:25;99175.47;;;11.22;68.20
70343;BME280;57767;42.068;24.752;2023-05-08T01:57:30;99169.38;;;11.22;67.98
70343;BME280;57767;42.068;24.752;2023-05-08T01:58:34;99157.16;;;11.21;68.06
70343;BME280;57767;42.068;24.752;2023-05-08T01:59:38;99173.44;;;11.37;67.49
70343;BME280;57767;42.068;24.752;2023-05-08T02:00:43;99170.38;;;11.34;67.80
70343;BME280;57767;42.068;24.752;2023-05-08T02:01:47;99164.25;;;11.40;67.62
70343;BME280;57767;42.068;24.752;2023-05-08T02:02:51;99171.78;;;11.43;68.27
70343;BME280;57767;42.068;24.752;2023-05-08T02:03:56;99159.78;;;11.34;69.37
70343;BME280;57767;42.068;24.752;2023-05-08T02:05:01;99167.31;;;11.37;69.32
70343;BME280;57767;42.068;24.752;2023-05-08T02:06:05;99161.84;;;11.38;69.40
70343;BME280;57767;42.068;24.752;2023-05-08T02:07:08;99163.66;;;11.38;69.32
70343;BME280;57767;42.068;24.752;2023-05-08T02:08:11;99164.03;;;11.41;69.42
70343;BME280;57767;42.068;24.752;2023-05-08T02:09:15;99161.19;;;11.43;69.02
70343;BME280;57767;42.068;24.752;2023-05-08T02:10:18;99157.34;;;11.45;69.02
70343;BME280;57767;42.068;24.752;2023-05-08T02:11:22;99156.13;;;11.41;68.45
70343;BME280;57767;42.068;24.752;2023-05-08T02:12:25;99148.78;;;11.43;68.43
70343;BME280;57767;42.068;24.752;2023-05-08T02:13:29;99160.41;;;11.49;68.39
70343;BME280;57767;42.068;24.752;2023-05-08T02:14:32;99165.84;;;11.54;68.56
70343;BME280;57767;42.068;24.752;2023-05-08T02:15:36;99163.22;;;11.54;67.92
70343;BME280;57767;42.068;24.752;2023-05-08T02:16:40;99161.38;;;11.55;68.44
70343;BME280;57767;42.068;24.752;2023-05-08T02:17:45;99165.88;;;11.41;68.44
70343;BME280;57767;42.068;24.752;2023-05-08T02:18:51;99169.78;;;11.38;68.74
70343;BME280;57767;42.068;24.752;2023-05-08T02:19:57;99167.72;;;11.40;69.25
70343;BME280;57767;42.068;24.752;2023-05-08T02:21:01;99175.44;;;11.42;69.06
70343;BME280;57767;42.068;24.752;2023-05-08T02:22:04;99170.56;;;11.32;68.56
70343;BME280;57767;42.068;24.752;2023-05-08T02:23:08;99158.16;;;11.33;68.38
70343;BME280;57767;42.068;24.752;2023-05-08T02:24:12;99171.38;;;11.33;68.82
70343;BME280;57767;42.068;24.752;2023-05-08T02:25:14;99176.69;;;11.20;66.91
70343;BME280;57767;42.068;24.752;2023-05-08T02:26:17;99171.00;;;11.23;67.43
70343;BME280;57767;42.068;24.752;2023-05-08T02:27:24;99169.56;;;11.27;66.64
70343;BME280;57767;42.068;24.752;2023-05-08T02:28:28;99170.38;;;11.27;66.71
70343;BME280;57767;42.068;24.752;2023-05-08T02:29:30;99170.97;;;11.29;67.08
70343;BME280;57767;42.068;24.752;2023-05-08T02:30:33;99157.97;;;11.28;66.65
70343;BME280;57767;42.068;24.752;2023-05-08T02:31:36;99157.16;;;11.27;66.75
70343;BME280;57767;42.068;24.752;2023-05-08T02:32:42;99155.94;;;11.30;66.89
70343;BME280;57767;42.068;24.752;2023-05-08T02:33:45;99159.19;;;11.32;66.69
70343;BME280;57767;42.068;24.752;2023-05-08T02:34:49;99162.03;;;11.30;66.69
70343;BME280;57767;42.068;24.752;2023-05-08T02:36:03;99162.03;;;11.30;66.91
70343;BME280;57767;42.068;24.752;2023-05-08T02:37:06;99158.97;;;11.33;66.93
70343;BME280;57767;42.068;24.752;2023-05-08T02:38:08;99158.16;;;11.33;66.89
70343;BME280;57767;42.068;24.752;2023-05-08T02:39:12;99163.84;;;11.43;67.64
70343;BME280;57767;42.068;24.752;2023-05-08T02:40:16;99171.78;;;11.43;67.40
70343;BME280;57767;42.068;24.752;2023-05-08T02:41:19;99162.81;;;11.44;67.44
70343;BME280;57767;42.068;24.752;2023-05-08T02:42:22;99165.28;;;11.45;67.04
70343;BME280;57767;42.068;24.752;2023-05-08T02:43:24;99168.31;;;11.49;66.98
70343;BME280;57767;42.068;24.752;2023-05-08T02:44:26;99159.56;;;11.42;66.06
70343;BME280;57767;42.068;24.752;2023-05-08T02:45:40;99165.47;;;11.51;65.93
70343;BME280;57767;42.068;24.752;2023-05-08T02:46:50;99168.13;;;11.51;65.46
70343;BME280;57767;42.068;24.752;2023-05-08T02:48:13;99159.16;;;11.45;66.40
70343;BME280;57767;42.068;24.752;2023-05-08T02:49:26;99158.16;;;11.46;65.24
70343;BME280;57767;42.068;24.752;2023-05-08T02:52:12;99174.19;;;11.58;64.24
70343;BME280;57767;42.068;24.752;2023-05-08T02:53:21;99177.88;;;11.63;64.57
70343;BME280;57767;42.068;24.752;2023-05-08T02:54:32;99175.03;;;11.65;64.69
70343;BME280;57767;42.068;24.752;2023-05-08T02:55:43;99170.94;;;11.62;64.66
70343;BME280;57767;42.068;24.752;2023-05-08T02:57:38;99174.22;;;11.64;64.67
70343;BME280;57767;42.068;24.752;2023-05-08T02:58:28;99174.22;;;11.64;63.74
70343;BME280;57767;42.068;24.752;2023-05-08T02:59:45;99179.91;;;11.61;64.10
70343;BME280;57767;42.068;24.752;2023-05-08T03:01:25;99174.41;;;11.63;64.17
70343;BME280;57767;42.068;24.752;2023-05-08T03:02:34;99168.72;;;11.59;64.34
70343;BME280;57767;42.068;24.752;2023-05-08T03:03:40;99177.88;;;11.63;64.52
70343;BME280;57767;42.068;24.752;2023-05-08T03:04:53;99174.19;;;11.58;64.79
70343;BME280;57767;42.068;24.752;2023-05-08T03:05:58;99175.00;;;11.58;64.58
70343;BME280;57767;42.068;24.752;2023-05-08T03:07:03;99186.81;;;11.62;64.88
70343;BME280;57767;42.068;24.752;2023-05-08T03:08:10;99179.69;;;11.63;64.42
70343;BME280;57767;42.068;24.752;2023-05-08T03:09:18;99168.31;;;11.56;64.90
70343;BME280;57767;42.068;24.752;2023-05-08T03:10:25;99187.44;;;11.64;65.16
70343;BME280;57767;42.068;24.752;2023-05-08T03:11:35;99183.56;;;11.60;65.12
70343;BME280;57767;42.068;24.752;2023-05-08T03:12:42;99184.97;;;11.56;65.29
70343;BME280;57767;42.068;24.752;2023-05-08T03:13:47;99181.34;;;11.51;65.65
70343;BME280;57767;42.068;24.752;2023-05-08T03:15:25;99186.00;;;11.55;65.57
70343;BME280;57767;42.068;24.752;2023-05-08T03:16:31;99185.59;;;11.58;65.85
70343;BME280;57767;42.068;24.752;2023-05-08T03:17:35;99184.56;;;11.59;65.79
70343;BME280;57767;42.068;24.752;2023-05-08T03:18:44;99176.88;;;11.51;66.04
70343;BME280;57767;42.068;24.752;2023-05-08T03:19:49;99180.72;;;11.55;65.96
70343;BME280;57767;42.068;24.752;2023-05-08T03:20:57;99193.94;;;11.62;65.34
70343;BME280;57767;42.068;24.752;2023-05-08T03:22:00;99188.25;;;11.58;65.72
70343;BME280;57767;42.068;24.752;2023-05-08T03:23:05;99181.31;;;11.57;65.80
70343;BME280;57767;42.068;24.752;2023-05-08T03:24:09;99174.63;;;11.48;66.05
70343;BME280;57767;42.068;24.752;2023-05-08T03:25:12;99183.97;;;11.44;66.88
70343;BME280;57767;42.068;24.752;2023-05-08T03:26:18;99180.72;;;11.42;66.08
70343;BME280;57767;42.068;24.752;2023-05-08T03:27:20;99185.00;;;11.43;66.01
70343;BME280;57767;42.068;24.752;2023-05-08T03:28:23;99188.84;;;11.40;66.04
70343;BME280;57767;42.068;24.752;2023-05-08T03:29:26;99188.03;;;11.40;66.26
70343;BME280;57767;42.068;24.752;2023-05-08T03:30:28;99188.28;;;11.38;66.52
70343;BME280;57767;42.068;24.752;2023-05-08T03:31:31;99189.66;;;11.41;66.38
70343;BME280;57767;42.068;24.752;2023-05-08T03:32:34;99190.09;;;11.38;66.77
70343;BME280;57767;42.068;24.752;2023-05-08T03:33:37;99195.41;;;11.38;67.34
70343;BME280;57767;42.068;24.752;2023-05-08T03:34:39;99193.56;;;11.32;68.21
70343;BME280;57767;42.068;24.752;2023-05-08T03:35:41;99192.31;;;11.28;68.12
70343;BME280;57767;42.068;24.752;2023-05-08T03:36:44;99196.19;;;11.32;67.74
70343;BME280;57767;42.068;24.752;2023-05-08T03:37:46;99196.22;;;11.38;68.23
70343;BME280;57767;42.068;24.752;2023-05-08T03:38:48;99200.03;;;11.42;67.97
70343;BME280;57767;42.068;24.752;2023-05-08T03:39:50;99190.69;;;11.46;67.38
70343;BME280;57767;42.068;24.752;2023-05-08T03:40:52;99198.59;;;11.53;67.32
70343;BME280;57767;42.068;24.752;2023-05-08T03:41:54;99188.47;;;11.50;67.64
70343;BME280;57767;42.068;24.752;2023-05-08T03:42:57;99203.09;;;11.59;67.75
70343;BME280;57767;42.068;24.752;2023-05-08T03:44:01;99196.38;;;11.63;67.97
70343;BME280;57767;42.068;24.752;2023-05-08T03:45:05;99189.88;;;11.59;67.66
70343;BME280;57767;42.068;24.752;2023-05-08T03:46:08;99198.78;;;11.71;67.98
70343;BME280;57767;42.068;24.752;2023-05-08T03:47:10;99205.72;;;11.72;68.08
70343;BME280;57767;42.068;24.752;2023-05-08T03:48:13;99200.44;;;11.72;68.46
70343;BME280;57767;42.068;24.752;2023-05-08T03:49:16;99202.47;;;11.70;67.88
70343;BME280;57767;42.068;24.752;2023-05-08T03:50:18;99192.09;;;11.69;68.77
70343;BME280;57767;42.068;24.752;2023-05-08T03:51:20;99200.22;;;11.80;67.95
70343;BME280;57767;42.068;24.752;2023-05-08T03:52:23;99205.50;;;11.87;67.50
70343;BME280;57767;42.068;24.752;2023-05-08T03:53:25;99200.84;;;11.89;68.01
70343;BME280;57767;42.068;24.752;2023-05-08T03:54:27;99209.34;;;11.98;68.39
70343;BME280;57767;42.068;24.752;2023-05-08T03:55:31;99204.84;;;12.05;67.96
70343;BME280;57767;42.068;24.752;2023-05-08T03:56:33;99195.72;;;12.01;68.21
70343;BME280;57767;42.068;24.752;2023-05-08T03:57:40;99199.94;;;12.15;68.65
70343;BME280;57767;42.068;24.752;2023-05-08T03:59:09;99207.84;;;12.22;68.23
70343;BME280;57767;42.068;24.752;2023-05-08T04:00:28;99192.16;;;12.20;68.69
70343;BME280;57767;42.068;24.752;2023-05-08T04:01:43;99201.69;;;12.34;68.64
70343;BME280;57767;42.068;24.752;2023-05-08T04:03:13;99208.94;;;12.52;69.20
70343;BME280;57767;42.068;24.752;2023-05-08T04:04:25;99205.97;;;12.67;68.78
70343;BME280;57767;42.068;24.752;2023-05-08T04:05:34;99206.72;;;12.80;68.33
70343;BME280;57767;42.068;24.752;2023-05-08T04:06:55;99213.16;;;12.98;68.26
70343;BME280;57767;42.068;24.752;2023-05-08T04:08:02;99207.53;;;13.12;68.64
70343;BME280;57767;42.068;24.752;2023-05-08T04:10:23;99207.06;;;13.47;68.15
70343;BME280;57767;42.068;24.752;2023-05-08T04:11:34;99204.72;;;13.57;67.67
70343;BME280;57767;42.068;24.752;2023-05-08T04:14:02;99211.44;;;14.03;67.16
70343;BME280;57767;42.068;24.752;2023-05-08T04:15:08;99214.88;;;14.21;66.63
70343;BME280;57767;42.068;24.752;2023-05-08T04:16:19;99215.28;;;14.43;66.09
70343;BME280;57767;42.068;24.752;2023-05-08T04:17:55;99217.13;;;14.73;65.09
70343;BME280;57767;42.068;24.752;2023-05-08T04:19:00;99210.13;;;14.90;63.84
70343;BME280;57767;42.068;24.752;2023-05-08T04:20:06;99215.38;;;15.08;62.86
70343;BME280;57767;42.068;24.752;2023-05-08T04:21:10;99221.44;;;15.27;61.78
70343;BME280;57767;42.068;24.752;2023-05-08T04:22:13;99210.44;;;15.47;60.56
70343;BME280;57767;42.068;24.752;2023-05-08T04:23:17;99212.34;;;15.69;59.41
70343;BME280;57767;42.068;24.752;2023-05-08T04:24:21;99209.53;;;15.88;58.46
70343;BME280;57767;42.068;24.752;2023-05-08T04:25:24;99214.97;;;16.04;57.77
70343;BME280;57767;42.068;24.752;2023-05-08T04:26:27;99214.81;;;16.23;56.71
70343;BME280;57767;42.068;24.752;2023-05-08T04:27:30;99208.16;;;16.37;56.56
70343;BME280;57767;42.068;24.752;2023-05-08T04:28:33;99216.56;;;16.57;56.62
70343;BME280;57767;42.068;24.752;2023-05-08T04:29:35;99210.50;;;16.73;56.62
70343;BME280;57767;42.068;24.752;2023-05-08T04:30:39;99218.88;;;16.94;54.87
70343;BME280;57767;42.068;24.752;2023-05-08T04:31:41;99214.63;;;17.09;55.34
70343;BME280;57767;42.068;24.752;2023-05-08T04:32:44;99222.84;;;17.25;54.50
70343;BME280;57767;42.068;24.752;2023-05-08T04:33:48;99215.34;;;17.38;54.39
70343;BME280;57767;42.068;24.752;2023-05-08T04:34:49;99207.75;;;17.47;52.89
70343;BME280;57767;42.068;24.752;2023-05-08T04:35:51;99207.09;;;17.57;53.72
70343;BME280;57767;42.068;24.752;2023-05-08T04:36:54;99213.22;;;17.74;53.48
70343;BME280;57767;42.068;24.752;2023-05-08T04:37:57;99210.78;;;17.89;52.92
70343;BME280;57767;42.068;24.752;2023-05-08T04:38:59;99208.50;;;17.98;52.33
70343;BME280;57767;42.068;24.752;2023-05-08T04:40:01;99200.91;;;18.11;52.07
70343;BME280;57767;42.068;24.752;2023-05-08T04:41:05;99207.81;;;18.29;51.04
70343;BME280;57767;42.068;24.752;2023-05-08T04:42:07;99208.81;;;18.45;51.54
70343;BME280;57767;42.068;24.752;2023-05-08T04:43:09;99201.81;;;18.60;49.91
70343;BME280;57767;42.068;24.752;2023-05-08T04:44:11;99211.91;;;18.80;49.00
70343;BME280;57767;42.068;24.752;2023-05-08T04:45:14;99214.38;;;18.87;48.51
70343;BME280;57767;42.068;24.752;2023-05-08T04:46:16;99208.31;;;18.96;47.49
70343;BME280;57767;42.068;24.752;2023-05-08T04:47:18;99208.97;;;19.09;47.78
70343;BME280;57767;42.068;24.752;2023-05-08T04:48:20;99215.50;;;19.23;46.92
70343;BME280;57767;42.068;24.752;2023-05-08T04:49:22;99208.59;;;19.32;47.51
70343;BME280;57767;42.068;24.752;2023-05-08T04:50:23;99210.84;;;19.45;46.96
70343;BME280;57767;42.068;24.752;2023-05-08T04:51:25;99213.13;;;19.58;46.79
70343;BME280;57767;42.068;24.752;2023-05-08T04:52:27;99212.38;;;19.68;46.29
70343;BME280;57767;42.068;24.752;2023-05-08T04:53:29;99214.84;;;19.75;45.09
70343;BME280;57767;42.068;24.752;2023-05-08T04:54:31;99219.44;;;19.84;44.41
70343;BME280;57767;42.068;24.752;2023-05-08T04:55:32;99218.16;;;19.92;44.17
70343;BME280;57767;42.068;24.752;2023-05-08T04:56:34;99205.28;;;19.94;44.78
70343;BME280;57767;42.068;24.752;2023-05-08T04:57:36;99218.50;;;20.06;45.96
70343;BME280;57767;42.068;24.752;2023-05-08T04:58:38;99214.47;;;20.08;44.66
70343;BME280;57767;42.068;24.752;2023-05-08T04:59:40;99208.06;;;20.09;44.79
70343;BME280;57767;42.068;24.752;2023-05-08T05:00:41;99207.56;;;20.17;44.94
70343;BME280;57767;42.068;24.752;2023-05-08T05:01:45;99201.72;;;20.25;43.92
70343;BME280;57767;42.068;24.752;2023-05-08T05:02:47;99204.44;;;20.41;44.21
70343;BME280;57767;42.068;24.752;2023-05-08T05:03:49;99206.63;;;20.54;44.27
70343;BME280;57767;42.068;24.752;2023-05-08T05:04:51;99203.72;;;20.65;43.75
70343;BME280;57767;42.068;24.752;2023-05-08T05:05:57;99199.69;;;20.68;42.35
70343;BME280;57767;42.068;24.752;2023-05-08T05:06:59;99205.88;;;20.79;42.96
70343;BME280;57767;42.068;24.752;2023-05-08T05:08:01;99198.94;;;20.88;42.43
70343;BME280;57767;42.068;24.752;2023-05-08T05:09:04;99206.47;;;20.96;42.88
70343;BME280;57767;42.068;24.752;2023-05-08T05:10:06;99201.66;;;21.13;41.41
70343;BME280;57767;42.068;24.752;2023-05-08T05:11:08;99213.50;;;21.32;41.57
70343;BME280;57767;42.068;24.752;2023-05-08T05:12:10;99203.81;;;21.41;40.67
70343;BME280;57767;42.068;24.752;2023-05-08T05:13:12;99203.81;;;21.52;40.88
70343;BME280;57767;42.068;24.752;2023-05-08T05:14:14;99197.63;;;21.61;40.68
70343;BME280;57767;42.068;24.752;2023-05-08T05:15:15;99205.66;;;21.76;39.86
70343;BME280;57767;42.068;24.752;2023-05-08T05:16:17;99204.56;;;21.88;40.21
70343;BME280;57767;42.068;24.752;2023-05-08T05:17:19;99208.31;;;22.02;38.98
70343;BME280;57767;42.068;24.752;2023-05-08T05:18:21;99205.84;;;22.10;38.47
70343;BME280;57767;42.068;24.752;2023-05-08T05:19:22;99203.13;;;22.21;38.51
70343;BME280;57767;42.068;24.752;2023-05-08T05:20:24;99203.34;;;22.29;37.11
70343;BME280;57767;42.068;24.752;2023-05-08T05:21:26;99202.81;;;22.32;37.20
70343;BME280;57767;42.068;24.752;2023-05-08T05:22:28;99201.66;;;22.43;36.45
70343;BME280;57767;42.068;24.752;2023-05-08T05:23:30;99211.28;;;22.55;36.74
70343;BME280;57767;42.068;24.752;2023-05-08T05:24:31;99199.13;;;22.67;37.07
70343;BME280;57767;42.068;24.752;2023-05-08T05:25:33;99212.25;;;22.84;37.10
70343;BME280;57767;42.068;24.752;2023-05-08T05:26:35;99194.88;;;22.56;35.26
70343;BME280;57767;42.068;24.752;2023-05-08T05:27:38;99208.56;;;22.65;36.32
70343;BME280;57767;42.068;24.752;2023-05-08T05:28:40;99204.22;;;22.79;37.17
70343;BME280;57767;42.068;24.752;2023-05-08T05:29:42;99193.84;;;22.96;36.46
70343;BME280;57767;42.068;24.752;2023-05-08T05:30:47;99201.84;;;23.06;36.19
70343;BME280;57767;42.068;24.752;2023-05-08T05:31:49;99200.75;;;23.12;34.60
70343;BME280;57767;42.068;24.752;2023-05-08T05:32:51;99200.66;;;23.22;35.14
70343;BME280;57767;42.068;24.752;2023-05-08T05:33:53;99196.63;;;23.20;35.10
70343;BME280;57767;42.068;24.752;2023-05-08T05:34:55;99188.25;;;23.21;35.08
70343;BME280;57767;42.068;24.752;2023-05-08T05:35:57;99188.22;;;23.27;34.78
70343;BME280;57767;42.068;24.752;2023-05-08T05:37:01;99190.38;;;23.30;34.89
70343;BME280;57767;42.068;24.752;2023-05-08T05:38:03;99184.44;;;23.28;34.36
70343;BME280;57767;42.068;24.752;2023-05-08T05:39:05;99182.22;;;23.35;34.92
70343;BME280;57767;42.068;24.752;2023-05-08T05:40:08;99189.47;;;23.39;35.12
70343;BME280;57767;42.068;24.752;2023-05-08T05:41:10;99184.88;;;23.40;34.99
70343;BME280;57767;42.068;24.752;2023-05-08T05:42:12;99188.59;;;23.44;35.07
70343;BME280;57767;42.068;24.752;2023-05-08T05:43:14;99186.94;;;23.53;33.99
70343;BME280;57767;42.068;24.752;2023-05-08T05:44:16;99161.47;;;23.35;33.72
70343;BME280;57767;42.068;24.752;2023-05-08T05:45:18;99177.19;;;23.57;34.60
70343;BME280;57767;42.068;24.752;2023-05-08T05:46:20;99185.66;;;23.74;33.36
70343;BME280;57767;42.068;24.752;2023-05-08T05:47:22;99177.91;;;23.91;33.68
70343;BME280;57767;42.068;24.752;2023-05-08T05:48:24;99189.09;;;24.04;32.68
70343;BME280;57767;42.068;24.752;2023-05-08T05:49:25;99175.00;;;24.07;33.04
70343;BME280;57767;42.068;24.752;2023-05-08T05:50:27;99187.59;;;24.16;32.37
70343;BME280;57767;42.068;24.752;2023-05-08T05:51:29;99184.91;;;23.92;31.16
70343;BME280;57767;42.068;24.752;2023-05-08T05:52:31;99179.16;;;23.75;32.32
70343;BME280;57767;42.068;24.752;2023-05-08T05:53:33;99183.22;;;23.73;32.64
70343;BME280;57767;42.068;24.752;2023-05-08T05:54:35;99172.72;;;23.71;31.87
70343;BME280;57767;42.068;24.752;2023-05-08T05:55:37;99179.66;;;23.48;31.34
70343;BME280;57767;42.068;24.752;2023-05-08T05:56:39;99179.06;;;23.28;32.21
70343;BME280;57767;42.068;24.752;2023-05-08T05:57:40;99179.75;;;23.09;31.10
70343;BME280;57767;42.068;24.752;2023-05-08T05:58:42;99178.22;;;22.98;31.96
70343;BME280;57767;42.068;24.752;2023-05-08T05:59:45;99179.47;;;23.11;32.95
70343;BME280;57767;42.068;24.752;2023-05-08T06:00:47;99176.84;;;23.35;33.21
70343;BME280;57767;42.068;24.752;2023-05-08T06:01:49;99166.94;;;23.59;32.30
70343;BME280;57767;42.068;24.752;2023-05-08T06:02:51;99171.53;;;23.82;31.33